TimeCST,TemperatureF,Dew PointF,Humidity,Sea Level PressureIn,VisibilityMPH,Wind Direction,Wind SpeedMPH,Gust SpeedMPH,PrecipitationIn,Events,Conditions,WindDirDegrees,DateUTC
12:15 AM,30.2,23.0,75,29.82,10.0,NNW,13.8,-,N/A,,Scattered Clouds,330,2013-01-30 06:15:00
12:35 AM,30.2,23.0,75,29.83,10.0,NW,13.8,-,N/A,,Clear,320,2013-01-30 06:35:00
12:55 AM,30.2,23.0,75,29.84,10.0,NNW,15.0,-,N/A,,Scattered Clouds,330,2013-01-30 06:55:00
1:15 AM,30.2,23.0,75,29.85,10.0,NNW,16.1,20.7,N/A,,Scattered Clouds,330,2013-01-30 07:15:00
1:35 AM,30.2,23.0,75,29.86,10.0,NNW,13.8,21.9,N/A,,Scattered Clouds,330,2013-01-30 07:35:00
1:55 AM,30.2,23.0,75,29.86,10.0,NW,15.0,19.6,N/A,,Clear,320,2013-01-30 07:55:00
2:15 AM,30.2,21.2,69,29.87,10.0,NW,19.6,24.2,N/A,,Clear,320,2013-01-30 08:15:00
2:35 AM,30.2,21.2,69,29.88,10.0,NW,17.3,-,N/A,,Clear,320,2013-01-30 08:35:00
2:55 AM,30.2,21.2,69,29.89,10.0,NW,13.8,-,N/A,,Clear,320,2013-01-30 08:55:00
3:15 AM,30.2,21.2,69,29.90,10.0,NW,16.1,-,N/A,,Clear,320,2013-01-30 09:15:00
3:35 AM,30.2,21.2,69,29.92,10.0,NW,19.6,-,N/A,,Clear,320,2013-01-30 09:35:00
3:55 AM,28.4,19.4,69,29.92,10.0,NW,17.3,-,N/A,,Clear,320,2013-01-30 09:55:00
4:15 AM,28.4,17.6,64,29.94,10.0,NW,18.4,-,N/A,,Clear,320,2013-01-30 10:15:00
4:35 AM,28.4,17.6,64,29.95,10.0,NW,17.3,-,N/A,,Clear,320,2013-01-30 10:35:00
4:55 AM,28.4,19.4,69,29.96,10.0,NW,16.1,-,N/A,,Clear,320,2013-01-30 10:55:00
5:15 AM,26.6,17.6,69,29.97,10.0,NW,15.0,-,N/A,,Clear,320,2013-01-30 11:15:00
5:35 AM,26.6,17.6,69,29.98,10.0,NW,15.0,-,N/A,,Clear,320,2013-01-30 11:35:00
5:55 AM,26.6,17.6,69,29.99,10.0,NW,12.7,-,N/A,,Clear,320,2013-01-30 11:55:00
6:15 AM,26.6,17.6,69,30.00,10.0,NW,13.8,-,N/A,,Clear,310,2013-01-30 12:15:00
6:35 AM,26.6,17.6,69,30.01,10.0,NW,15.0,19.6,N/A,,Clear,320,2013-01-30 12:35:00
6:55 AM,26.6,15.8,64,30.02,10.0,NW,16.1,20.7,N/A,,Clear,320,2013-01-30 12:55:00
7:15 AM,26.6,15.8,64,30.02,10.0,NW,13.8,-,N/A,,Clear,320,2013-01-30 13:15:00
7:35 AM,26.6,15.8,64,30.04,10.0,NW,13.8,-,N/A,,Clear,320,2013-01-30 13:35:00
7:55 AM,24.8,14.0,64,30.05,10.0,NW,12.7,-,N/A,,Clear,310,2013-01-30 13:55:00
8:15 AM,26.6,15.8,64,30.05,10.0,NW,13.8,-,N/A,,Clear,320,2013-01-30 14:15:00
8:35 AM,28.4,17.6,64,30.06,10.0,NW,12.7,-,N/A,,Clear,320,2013-01-30 14:35:00
8:55 AM,30.2,17.6,60,30.06,10.0,NW,12.7,-,N/A,,Clear,320,2013-01-30 14:55:00
9:15 AM,30.2,17.6,60,30.07,10.0,NNW,15.0,20.7,N/A,,Clear,330,2013-01-30 15:15:00
9:35 AM,32.0,17.6,55,30.07,10.0,NNW,15.0,-,N/A,,Clear,340,2013-01-30 15:35:00
9:55 AM,32.0,17.6,55,30.08,10.0,NNW,16.1,-,N/A,,Clear,340,2013-01-30 15:55:00
10:15 AM,33.8,19.4,56,30.08,10.0,North,15.0,-,N/A,,Clear,350,2013-01-30 16:15:00
10:35 AM,33.8,17.6,52,30.08,10.0,NNW,16.1,-,N/A,,Clear,340,2013-01-30 16:35:00
10:55 AM,35.6,17.6,48,30.08,10.0,NNW,12.7,19.6,N/A,,Clear,330,2013-01-30 16:55:00
11:15 AM,35.6,14.0,41,30.08,10.0,NW,12.7,-,N/A,,Clear,320,2013-01-30 17:15:00
11:35 AM,35.6,12.2,38,30.09,10.0,NW,11.5,19.6,N/A,,Clear,320,2013-01-30 17:35:00
11:55 AM,37.4,12.2,36,30.08,10.0,NW,12.7,18.4,N/A,,Clear,310,2013-01-30 17:55:00
12:15 PM,39.2,12.2,33,30.07,10.0,WNW,15.0,20.7,N/A,,Clear,290,2013-01-30 18:15:00
12:35 PM,39.2,10.4,31,30.07,10.0,WNW,17.3,21.9,N/A,,Clear,290,2013-01-30 18:35:00
12:55 PM,41.0,10.4,29,30.06,10.0,West,16.1,23.0,N/A,,Clear,270,2013-01-30 18:55:00
1:15 PM,41.0,10.4,29,30.05,10.0,West,19.6,23.0,N/A,,Clear,280,2013-01-30 19:15:00
1:35 PM,41.0,10.4,29,30.04,10.0,West,17.3,25.3,N/A,,Clear,280,2013-01-30 19:35:00
1:55 PM,42.8,10.4,27,30.02,10.0,West,17.3,28.8,N/A,,Scattered Clouds,270,2013-01-30 19:55:00
2:15 PM,42.8,8.6,25,30.01,10.0,West,16.1,24.2,N/A,,Scattered Clouds,270,2013-01-30 20:15:00
2:35 PM,44.6,5.0,20,30.00,10.0,West,18.4,25.3,N/A,,Clear,280,2013-01-30 20:35:00
2:55 PM,46.4,6.8,20,29.99,10.0,West,18.4,25.3,N/A,,Clear,270,2013-01-30 20:55:00
3:15 PM,44.6,1.4,17,29.99,10.0,West,19.6,26.5,N/A,,Clear,260,2013-01-30 21:15:00
3:35 PM,46.4,1.4,16,30.00,10.0,West,19.6,26.5,N/A,,Clear,280,2013-01-30 21:35:00
3:55 PM,46.4,3.2,17,30.00,10.0,West,19.6,27.6,N/A,,Clear,280,2013-01-30 21:55:00
4:15 PM,46.4,3.2,17,30.00,10.0,West,18.4,27.6,N/A,,Clear,270,2013-01-30 22:15:00
4:35 PM,46.4,3.2,17,30.00,10.0,West,17.3,24.2,N/A,,Clear,270,2013-01-30 22:35:00
4:55 PM,46.4,1.4,16,30.00,10.0,WNW,19.6,23.0,N/A,,Clear,300,2013-01-30 22:55:00
5:15 PM,44.6,1.4,17,30.00,10.0,WNW,16.1,-,N/A,,Clear,290,2013-01-30 23:15:00
5:35 PM,44.6,-0.4,15,30.02,10.0,NW,13.8,20.7,N/A,,Clear,320,2013-01-30 23:35:00
6:15 PM,39.2,-0.4,19,30.02,10.0,NW,5.8,-,N/A,,Clear,310,2013-01-31 00:15:00
6:35 PM,35.6,1.4,24,30.02,10.0,West,3.5,-,N/A,,Clear,280,2013-01-31 00:35:00
6:55 PM,35.6,3.2,26,30.02,10.0,SW,3.5,-,N/A,,Clear,220,2013-01-31 00:55:00
7:15 PM,35.6,3.2,26,30.04,10.0,SW,3.5,-,N/A,,Clear,220,2013-01-31 01:15:00
7:35 PM,33.8,3.2,28,30.05,10.0,SSW,6.9,-,N/A,,Clear,210,2013-01-31 01:35:00
7:55 PM,33.8,5.0,30,30.05,10.0,SW,8.1,-,N/A,,Clear,220,2013-01-31 01:55:00
8:15 PM,32.0,5.0,32,30.05,10.0,SSW,6.9,-,N/A,,Clear,210,2013-01-31 02:15:00
8:35 PM,32.0,3.2,30,30.06,10.0,SSW,6.9,-,N/A,,Clear,210,2013-01-31 02:35:00
8:55 PM,32.0,5.0,32,30.06,10.0,SW,4.6,-,N/A,,Clear,220,2013-01-31 02:55:00
9:15 PM,32.0,5.0,32,30.06,10.0,SW,5.8,-,N/A,,Clear,220,2013-01-31 03:15:00
9:35 PM,30.2,5.0,34,30.06,10.0,SW,8.1,-,N/A,,Clear,220,2013-01-31 03:35:00
9:55 PM,32.0,6.8,35,30.05,10.0,SW,8.1,-,N/A,,Clear,220,2013-01-31 03:55:00
10:15 PM,30.2,8.6,40,30.04,10.0,WSW,6.9,-,N/A,,Clear,240,2013-01-31 04:15:00
10:35 PM,30.2,8.6,40,30.04,10.0,SW,9.2,-,N/A,,Clear,230,2013-01-31 04:35:00
10:55 PM,30.2,8.6,40,30.04,10.0,SW,9.2,-,N/A,,Clear,230,2013-01-31 04:55:00
11:15 PM,32.0,10.4,41,30.05,10.0,SW,9.2,-,N/A,,Clear,230,2013-01-31 05:15:00
11:35 PM,32.0,12.2,44,30.04,10.0,WSW,10.4,-,N/A,,Clear,240,2013-01-31 05:35:00
11:55 PM,32.0,10.4,41,30.04,10.0,WSW,10.4,-,N/A,,Clear,250,2013-01-31 05:55:00